logo
Rechercher aéroport 
image banner adimage banner adimage banner ad
image banner ad

EYTL - Telsiai

Situé à Telsiai, Lithuania

ICAO - EYTL, IATA -

Données fournies par Airmate  

Information générale

Coordonnées: N55°59'11" E22°17'16"
Élévation : 410 feet MSL.
Variation magnétique : 7° East
Voir autres Aéroports à Telšiai County

Données opérationnelles

Special qualification required
Heure actuelle UTC:
Heure actuelle locale:
METAR: EYSA 222320Z AUTO 07008KT 9999NDV TS NSC 14/12 Q1018
TAF: TAF EYSA 222304Z 2300/2309 VRB05KT 9000 NSC TEMPO 2300/2304 TS SCT040CB
Voir NOTAMs / SUP AIP / TFR affectant cet aéroport [VIEW]
Fréquences de communication: [VIEW]

Pistes:

Identifiant RWYQFULongueur (ft)Largeur (ft)SurfaceLDA (ft)
05R52°1903197GRASS
23L232°1903197GRASS
11119°1509328GRASS
29299°1509328GRASS

Coordonnées de l'aéroport

Adresse: Telsiai Lithuania

Vue satellite de EYTL